KSEM/SEM METAR and TAF weather

Enter ICAO airport designator
Station Type Date Time Source
KSEM METAR 2021/09/23 16:55 UTC NOAA

KSEM 231655Z AUTO 34011KT 10SM CLR 22/09 A3007 RMK AO2


Station Type Date Time Source
KSEM Decoded METAR 2021/09/23 16:55 UTC NOAA

Craig Field / Selma, AL, United States (KSEM) 32-21N 086-59W
Sep 23, 2021 - 12:55 PM EDT / 2021.09.23 1655 UTC
Wind: from the NNW (340 degrees) at 13 MPH (11 KT):0
Visibility: 10 mile(s):0
Sky conditions: clear
Temperature: 71 F (22 C)
Dew Point: 48 F (9 C)
Relative Humidity: 43%
Pressure (altimeter): 30.07 in. Hg (1018 hPa)
ob: KSEM 231655Z AUTO 34011KT 10SM CLR 22/09 A3007 RMK AO2
cycle: 17

Station Type Date Time Source
KSEM TAF UTC NOAA

Error!

Example: see airport list